sensor_id;sensor_type;location;lat;lon;timestamp;pressure;altitude;pressure_sealevel;temperature;humidity
61537;BME280;48695;53.480;-6.300;2022-07-18T00:02:02;101258.06;;;25.24;39.88
61537;BME280;48695;53.480;-6.300;2022-07-18T00:04:28;101244.91;;;25.09;41.12
61537;BME280;48695;53.480;-6.300;2022-07-18T00:06:54;101260.50;;;25.16;40.89
61537;BME280;48695;53.480;-6.300;2022-07-18T00:09:20;101259.00;;;25.12;40.91
61537;BME280;48695;53.480;-6.300;2022-07-18T00:11:48;101243.25;;;24.96;40.16
61537;BME280;48695;53.480;-6.300;2022-07-18T00:14:13;101247.72;;;24.95;40.44
61537;BME280;48695;53.480;-6.300;2022-07-18T00:16:39;101260.00;;;24.98;40.79
61537;BME280;48695;53.480;-6.300;2022-07-18T00:19:04;101261.31;;;24.92;39.92
61537;BME280;48695;53.480;-6.300;2022-07-18T00:21:31;101258.13;;;24.87;40.66
61537;BME280;48695;53.480;-6.300;2022-07-18T00:23:57;101250.56;;;24.81;40.68
61537;BME280;48695;53.480;-6.300;2022-07-18T00:26:22;101244.84;;;24.74;41.30
61537;BME280;48695;53.480;-6.300;2022-07-18T00:28:48;101248.81;;;24.69;40.80
61537;BME280;48695;53.480;-6.300;2022-07-18T00:31:13;101250.22;;;24.62;41.10
61537;BME280;48695;53.480;-6.300;2022-07-18T00:33:38;101248.13;;;24.54;41.19
61537;BME280;48695;53.480;-6.300;2022-07-18T00:36:04;101233.28;;;24.37;40.99
61537;BME280;48695;53.480;-6.300;2022-07-18T00:38:30;101255.41;;;24.39;41.27
61537;BME280;48695;53.480;-6.300;2022-07-18T00:40:55;101259.44;;;24.32;41.25
61537;BME280;48695;53.480;-6.300;2022-07-18T00:43:21;101254.53;;;24.26;41.91
61537;BME280;48695;53.480;-6.300;2022-07-18T00:45:48;101252.44;;;24.18;41.73
61537;BME280;48695;53.480;-6.300;2022-07-18T00:48:15;101245.94;;;24.10;42.20
61537;BME280;48695;53.480;-6.300;2022-07-18T00:50:42;101243.69;;;24.03;42.55
61537;BME280;48695;53.480;-6.300;2022-07-18T00:53:09;101245.84;;;23.98;41.65
61537;BME280;48695;53.480;-6.300;2022-07-18T00:55:42;101231.63;;;23.85;42.26
61537;BME280;48695;53.480;-6.300;2022-07-18T00:58:09;101228.75;;;23.75;42.91
61537;BME280;48695;53.480;-6.300;2022-07-18T01:00:35;101234.75;;;23.79;42.37
61537;BME280;48695;53.480;-6.300;2022-07-18T01:03:22;101248.50;;;23.73;42.73
61537;BME280;48695;53.480;-6.300;2022-07-18T01:05:47;101251.56;;;23.67;43.46
61537;BME280;48695;53.480;-6.300;2022-07-18T01:08:13;101248.44;;;23.60;43.01
61537;BME280;48695;53.480;-6.300;2022-07-18T01:10:38;101235.66;;;23.52;43.46
61537;BME280;48695;53.480;-6.300;2022-07-18T01:13:04;101240.44;;;23.47;43.60
61537;BME280;48695;53.480;-6.300;2022-07-18T01:15:29;101237.25;;;23.42;43.94
61537;BME280;48695;53.480;-6.300;2022-07-18T01:17:55;101238.50;;;23.37;43.40
61537;BME280;48695;53.480;-6.300;2022-07-18T01:20:20;101235.28;;;23.31;43.36
61537;BME280;48695;53.480;-6.300;2022-07-18T01:22:46;101239.13;;;23.27;44.13
61537;BME280;48695;53.480;-6.300;2022-07-18T01:25:12;101230.50;;;23.24;44.32
61537;BME280;48695;53.480;-6.300;2022-07-18T01:27:42;101228.25;;;23.18;43.90
61537;BME280;48695;53.480;-6.300;2022-07-18T01:30:08;101230.13;;;23.16;43.59
61537;BME280;48695;53.480;-6.300;2022-07-18T01:32:34;101228.66;;;23.12;44.06
61537;BME280;48695;53.480;-6.300;2022-07-18T01:34:59;101226.31;;;23.07;44.02
61537;BME280;48695;53.480;-6.300;2022-07-18T01:37:25;101222.13;;;23.03;43.55
61537;BME280;48695;53.480;-6.300;2022-07-18T01:39:50;101197.53;;;22.85;43.72
61537;BME280;48695;53.480;-6.300;2022-07-18T01:42:16;101213.88;;;22.93;43.97
61537;BME280;48695;53.480;-6.300;2022-07-18T01:44:43;101213.16;;;22.91;44.14
61537;BME280;48695;53.480;-6.300;2022-07-18T01:47:10;101218.47;;;22.91;44.07
61537;BME280;48695;53.480;-6.300;2022-07-18T01:49:36;101216.94;;;22.87;44.73
61537;BME280;48695;53.480;-6.300;2022-07-18T01:52:03;101208.47;;;22.80;44.36
61537;BME280;48695;53.480;-6.300;2022-07-18T01:54:30;101210.09;;;22.83;44.21
61537;BME280;48695;53.480;-6.300;2022-07-18T01:56:56;101209.34;;;22.81;42.74
61537;BME280;48695;53.480;-6.300;2022-07-18T01:59:22;101209.53;;;22.78;44.72
61537;BME280;48695;53.480;-6.300;2022-07-18T02:01:48;101206.13;;;22.76;44.64
61537;BME280;48695;53.480;-6.300;2022-07-18T02:04:14;101209.72;;;22.75;44.67
61537;BME280;48695;53.480;-6.300;2022-07-18T02:06:40;101205.38;;;22.74;44.77
61537;BME280;48695;53.480;-6.300;2022-07-18T02:09:06;101201.97;;;22.72;44.68
61537;BME280;48695;53.480;-6.300;2022-07-18T02:11:33;101197.03;;;22.66;44.89
61537;BME280;48695;53.480;-6.300;2022-07-18T02:13:58;101196.16;;;22.65;44.23
61537;BME280;48695;53.480;-6.300;2022-07-18T02:16:24;101205.13;;;22.64;44.80
61537;BME280;48695;53.480;-6.300;2022-07-18T02:18:52;101198.19;;;22.62;45.03
61537;BME280;48695;53.480;-6.300;2022-07-18T02:21:17;101191.25;;;22.59;45.01
61537;BME280;48695;53.480;-6.300;2022-07-18T02:23:44;101189.66;;;22.57;45.25
61537;BME280;48695;53.480;-6.300;2022-07-18T02:26:10;101191.53;;;22.54;44.63
61537;BME280;48695;53.480;-6.300;2022-07-18T02:28:35;101169.44;;;22.40;44.79
61537;BME280;48695;53.480;-6.300;2022-07-18T02:31:02;101174.69;;;22.41;44.95
61537;BME280;48695;53.480;-6.300;2022-07-18T02:33:27;101175.72;;;22.39;44.40
61537;BME280;48695;53.480;-6.300;2022-07-18T02:35:53;101188.53;;;22.46;45.01
61537;BME280;48695;53.480;-6.300;2022-07-18T02:38:18;101183.41;;;22.43;44.84
61537;BME280;48695;53.480;-6.300;2022-07-18T02:40:44;101178.28;;;22.40;45.05
61537;BME280;48695;53.480;-6.300;2022-07-18T02:43:09;101188.06;;;22.40;45.32
61537;BME280;48695;53.480;-6.300;2022-07-18T02:45:35;101182.09;;;22.36;46.05
61537;BME280;48695;53.480;-6.300;2022-07-18T02:48:01;101182.09;;;22.36;45.47
61537;BME280;48695;53.480;-6.300;2022-07-18T02:50:27;101186.59;;;22.36;45.92
61537;BME280;48695;53.480;-6.300;2022-07-18T02:52:52;101168.72;;;22.23;45.66
61537;BME280;48695;53.480;-6.300;2022-07-18T02:55:18;101176.31;;;22.30;45.43
61537;BME280;48695;53.480;-6.300;2022-07-18T02:57:43;101174.16;;;22.22;45.76
61537;BME280;48695;53.480;-6.300;2022-07-18T03:00:11;101176.69;;;22.23;46.20
61537;BME280;48695;53.480;-6.300;2022-07-18T03:02:37;101175.09;;;22.21;46.49
61537;BME280;48695;53.480;-6.300;2022-07-18T03:05:04;101179.66;;;22.19;46.48
61537;BME280;48695;53.480;-6.300;2022-07-18T03:07:29;101178.13;;;22.15;46.58
61537;BME280;48695;53.480;-6.300;2022-07-18T03:09:55;101173.78;;;22.14;45.91
61537;BME280;48695;53.480;-6.300;2022-07-18T03:12:21;101162.75;;;22.06;46.81
61537;BME280;48695;53.480;-6.300;2022-07-18T03:14:46;101166.16;;;22.08;46.77
61537;BME280;48695;53.480;-6.300;2022-07-18T03:17:11;101169.78;;;22.07;47.07
61537;BME280;48695;53.480;-6.300;2022-07-18T03:19:37;101157.78;;;21.99;46.94
61537;BME280;48695;53.480;-6.300;2022-07-18T03:22:04;101175.50;;;22.00;46.83
61537;BME280;48695;53.480;-6.300;2022-07-18T03:24:29;101172.16;;;21.97;46.49
61537;BME280;48695;53.480;-6.300;2022-07-18T03:26:55;101170.53;;;21.94;47.12
61537;BME280;48695;53.480;-6.300;2022-07-18T03:29:21;101168.25;;;21.88;46.60
61537;BME280;48695;53.480;-6.300;2022-07-18T03:31:47;101175.50;;;21.86;47.06
61537;BME280;48695;53.480;-6.300;2022-07-18T03:34:12;101168.81;;;21.79;47.13
61537;BME280;48695;53.480;-6.300;2022-07-18T03:36:38;101168.09;;;21.77;46.52
61537;BME280;48695;53.480;-6.300;2022-07-18T03:39:05;101167.69;;;21.69;46.94
61537;BME280;48695;53.480;-6.300;2022-07-18T03:41:31;101175.47;;;21.72;47.25
61537;BME280;48695;53.480;-6.300;2022-07-18T03:43:57;101175.66;;;21.69;46.66
61537;BME280;48695;53.480;-6.300;2022-07-18T03:46:22;101165.25;;;21.66;46.91
61537;BME280;48695;53.480;-6.300;2022-07-18T03:48:48;101161.22;;;21.59;47.29
61537;BME280;48695;53.480;-6.300;2022-07-18T03:51:13;101159.72;;;21.55;47.42
61537;BME280;48695;53.480;-6.300;2022-07-18T03:53:39;101159.81;;;21.53;47.90
61537;BME280;48695;53.480;-6.300;2022-07-18T03:56:04;101164.47;;;21.49;47.34
61537;BME280;48695;53.480;-6.300;2022-07-18T03:58:30;101162.94;;;21.45;48.26
61537;BME280;48695;53.480;-6.300;2022-07-18T04:00:55;101157.81;;;21.42;48.19
61537;BME280;48695;53.480;-6.300;2022-07-18T04:03:21;101164.25;;;21.38;47.96
61537;BME280;48695;53.480;-6.300;2022-07-18T04:05:47;101149.63;;;21.31;48.33
61537;BME280;48695;53.480;-6.300;2022-07-18T04:08:12;101141.44;;;21.20;48.06
61537;BME280;48695;53.480;-6.300;2022-07-18T04:10:38;101163.06;;;21.28;47.92
61537;BME280;48695;53.480;-6.300;2022-07-18T04:13:06;101153.59;;;21.24;48.49
61537;BME280;48695;53.480;-6.300;2022-07-18T04:15:32;101160.03;;;21.20;48.09
61537;BME280;48695;53.480;-6.300;2022-07-18T04:17:57;101162.84;;;21.17;48.61
61537;BME280;48695;53.480;-6.300;2022-07-18T04:20:23;101143.88;;;21.09;48.25
61537;BME280;48695;53.480;-6.300;2022-07-18T04:22:50;101151.75;;;21.10;48.38
61537;BME280;48695;53.480;-6.300;2022-07-18T04:25:18;101151.06;;;21.07;48.09
61537;BME280;48695;53.480;-6.300;2022-07-18T04:27:44;101142.34;;;21.05;45.98
61537;BME280;48695;53.480;-6.300;2022-07-18T04:30:10;101150.59;;;21.00;48.57
61537;BME280;48695;53.480;-6.300;2022-07-18T04:32:36;101145.53;;;20.95;48.63
61537;BME280;48695;53.480;-6.300;2022-07-18T04:35:02;101141.34;;;20.91;48.76
61537;BME280;48695;53.480;-6.300;2022-07-18T04:37:30;101120.06;;;20.77;49.23
61537;BME280;48695;53.480;-6.300;2022-07-18T04:39:56;101138.28;;;20.83;49.10
61537;BME280;48695;53.480;-6.300;2022-07-18T04:42:22;101135.81;;;20.80;48.87
61537;BME280;48695;53.480;-6.300;2022-07-18T04:44:47;101139.50;;;20.78;49.24
61537;BME280;48695;53.480;-6.300;2022-07-18T04:47:12;101137.03;;;20.75;49.44
61537;BME280;48695;53.480;-6.300;2022-07-18T04:49:38;101141.56;;;20.72;49.14
61537;BME280;48695;53.480;-6.300;2022-07-18T04:52:03;101142.63;;;20.70;49.59
61537;BME280;48695;53.480;-6.300;2022-07-18T04:54:29;101140.91;;;20.69;49.89
61537;BME280;48695;53.480;-6.300;2022-07-18T04:56:54;101140.22;;;20.65;49.67
61537;BME280;48695;53.480;-6.300;2022-07-18T04:59:20;101142.97;;;20.64;49.73
61537;BME280;48695;53.480;-6.300;2022-07-18T05:01:45;101133.28;;;20.63;49.54
61537;BME280;48695;53.480;-6.300;2022-07-18T05:04:10;101132.53;;;20.61;49.96
61537;BME280;48695;53.480;-6.300;2022-07-18T05:06:36;101136.13;;;20.60;50.15
61537;BME280;48695;53.480;-6.300;2022-07-18T05:09:01;101126.47;;;20.59;49.08
61537;BME280;48695;53.480;-6.300;2022-07-18T05:11:27;101129.28;;;20.56;50.24
61537;BME280;48695;53.480;-6.300;2022-07-18T05:13:52;101136.28;;;20.57;50.09
61537;BME280;48695;53.480;-6.300;2022-07-18T05:16:18;101135.44;;;20.56;50.14
61537;BME280;48695;53.480;-6.300;2022-07-18T05:18:43;101130.41;;;20.52;50.15
61537;BME280;48695;53.480;-6.300;2022-07-18T05:21:08;101138.09;;;20.56;50.46
61537;BME280;48695;53.480;-6.300;2022-07-18T05:23:34;101138.94;;;20.57;50.85
61537;BME280;48695;53.480;-6.300;2022-07-18T05:25:59;101136.28;;;20.57;50.61
61537;BME280;48695;53.480;-6.300;2022-07-18T05:28:25;101133.75;;;20.55;50.40
61537;BME280;48695;53.480;-6.300;2022-07-18T05:30:50;101132.69;;;20.58;49.42
61537;BME280;48695;53.480;-6.300;2022-07-18T05:33:16;101132.69;;;20.58;49.92
61537;BME280;48695;53.480;-6.300;2022-07-18T05:35:41;101120.22;;;20.44;50.01
61537;BME280;48695;53.480;-6.300;2022-07-18T05:38:07;101134.75;;;20.53;49.72
61537;BME280;48695;53.480;-6.300;2022-07-18T05:40:32;101137.34;;;20.54;50.15
61537;BME280;48695;53.480;-6.300;2022-07-18T05:42:58;101126.78;;;20.53;50.14
61537;BME280;48695;53.480;-6.300;2022-07-18T05:45:24;101123.22;;;20.54;50.69
61537;BME280;48695;53.480;-6.300;2022-07-18T05:47:50;101123.97;;;20.56;49.96
61537;BME280;48695;53.480;-6.300;2022-07-18T05:50:15;101124.72;;;20.58;49.90
61537;BME280;48695;53.480;-6.300;2022-07-18T05:52:41;101115.66;;;20.62;50.48
61537;BME280;48695;53.480;-6.300;2022-07-18T05:55:07;101118.16;;;20.65;50.50
61537;BME280;48695;53.480;-6.300;2022-07-18T05:57:33;101125.00;;;20.69;49.92
61537;BME280;48695;53.480;-6.300;2022-07-18T05:59:58;101111.97;;;20.64;50.56
61537;BME280;48695;53.480;-6.300;2022-07-18T06:02:23;101120.91;;;20.78;50.00
61537;BME280;48695;53.480;-6.300;2022-07-18T06:04:49;101119.63;;;20.85;50.31
61537;BME280;48695;53.480;-6.300;2022-07-18T06:07:15;101122.03;;;20.89;50.32
61537;BME280;48695;53.480;-6.300;2022-07-18T06:09:40;101128.75;;;20.95;50.07
61537;BME280;48695;53.480;-6.300;2022-07-18T06:12:06;101120.44;;;21.01;50.63
61537;BME280;48695;53.480;-6.300;2022-07-18T06:14:31;101112.19;;;21.06;50.42
61537;BME280;48695;53.480;-6.300;2022-07-18T06:16:57;101117.91;;;21.14;50.65
61537;BME280;48695;53.480;-6.300;2022-07-18T06:19:23;101122.84;;;21.20;50.92
61537;BME280;48695;53.480;-6.300;2022-07-18T06:21:49;101118.84;;;21.27;49.84
61537;BME280;48695;53.480;-6.300;2022-07-18T06:24:15;101124.66;;;21.34;50.08
61537;BME280;48695;53.480;-6.300;2022-07-18T06:26:40;101118.06;;;21.41;49.71
61537;BME280;48695;53.480;-6.300;2022-07-18T06:29:06;101115.28;;;21.42;50.01
61537;BME280;48695;53.480;-6.300;2022-07-18T06:31:31;101126.69;;;21.59;49.78
61537;BME280;48695;53.480;-6.300;2022-07-18T06:33:57;101126.22;;;21.66;50.46
61537;BME280;48695;53.480;-6.300;2022-07-18T06:36:22;101114.63;;;21.67;49.89
61537;BME280;48695;53.480;-6.300;2022-07-18T06:38:49;101124.31;;;21.83;49.59
61537;BME280;48695;53.480;-6.300;2022-07-18T06:41:16;101130.06;;;21.89;49.03
61537;BME280;48695;53.480;-6.300;2022-07-18T06:43:41;101120.78;;;21.96;49.84
61537;BME280;48695;53.480;-6.300;2022-07-18T06:46:07;101101.38;;;21.94;48.92
61537;BME280;48695;53.480;-6.300;2022-07-18T06:48:33;101114.41;;;22.13;48.40
61537;BME280;48695;53.480;-6.300;2022-07-18T06:51:00;101116.59;;;22.21;48.30
61537;BME280;48695;53.480;-6.300;2022-07-18T06:53:27;101124.91;;;22.29;48.08
61537;BME280;48695;53.480;-6.300;2022-07-18T06:55:53;101123.56;;;22.36;47.97
61537;BME280;48695;53.480;-6.300;2022-07-18T06:58:18;101120.38;;;22.44;47.86
61537;BME280;48695;53.480;-6.300;2022-07-18T07:00:44;101108.16;;;22.41;47.94
61537;BME280;48695;53.480;-6.300;2022-07-18T07:03:09;101120.44;;;22.57;48.52
61537;BME280;48695;53.480;-6.300;2022-07-18T07:05:34;101125.34;;;22.63;47.60
61537;BME280;48695;53.480;-6.300;2022-07-18T07:08:00;101119.63;;;22.69;47.67
61537;BME280;48695;53.480;-6.300;2022-07-18T07:10:25;101122.81;;;22.74;47.81
61537;BME280;48695;53.480;-6.300;2022-07-18T07:12:51;101127.75;;;22.80;47.90
61537;BME280;48695;53.480;-6.300;2022-07-18T07:15:21;101131.53;;;22.90;47.67
61537;BME280;48695;53.480;-6.300;2022-07-18T07:17:47;101128.84;;;22.90;47.68
61537;BME280;48695;53.480;-6.300;2022-07-18T07:20:13;101134.34;;;23.01;48.27
61537;BME280;48695;53.480;-6.300;2022-07-18T07:22:46;101117.81;;;23.09;47.82
61537;BME280;48695;53.480;-6.300;2022-07-18T07:25:13;101119.97;;;23.17;48.07
61537;BME280;48695;53.480;-6.300;2022-07-18T07:27:38;101106.66;;;23.17;48.26
61537;BME280;48695;53.480;-6.300;2022-07-18T07:30:04;101114.63;;;23.29;47.96
61537;BME280;48695;53.480;-6.300;2022-07-18T07:32:34;101119.44;;;23.37;47.78
61537;BME280;48695;53.480;-6.300;2022-07-18T07:35:00;101114.84;;;23.39;47.80
61537;BME280;48695;53.480;-6.300;2022-07-18T07:37:26;101110.34;;;23.40;47.72
61537;BME280;48695;53.480;-6.300;2022-07-18T07:39:51;101113.34;;;23.48;48.02
61537;BME280;48695;53.480;-6.300;2022-07-18T07:42:16;101119.28;;;23.51;47.45
61537;BME280;48695;53.480;-6.300;2022-07-18T07:44:42;101116.22;;;23.58;47.63
61537;BME280;48695;53.480;-6.300;2022-07-18T07:47:07;101101.81;;;23.60;47.13
61537;BME280;48695;53.480;-6.300;2022-07-18T07:49:32;101109.31;;;23.68;47.05
61537;BME280;48695;53.480;-6.300;2022-07-18T07:52:00;101107.91;;;23.75;47.58
61537;BME280;48695;53.480;-6.300;2022-07-18T07:54:25;101103.09;;;23.80;47.28
61537;BME280;48695;53.480;-6.300;2022-07-18T07:56:51;101098.06;;;23.88;46.98
61537;BME280;48695;53.480;-6.300;2022-07-18T07:59:16;101096.66;;;23.95;46.67
61537;BME280;48695;53.480;-6.300;2022-07-18T08:01:42;101099.72;;;24.02;46.72
61537;BME280;48695;53.480;-6.300;2022-07-18T08:04:08;101103.66;;;24.09;46.34
61537;BME280;48695;53.480;-6.300;2022-07-18T08:06:33;101104.06;;;24.16;46.33
61537;BME280;48695;53.480;-6.300;2022-07-18T08:08:59;101100.84;;;24.23;46.23
61537;BME280;48695;53.480;-6.300;2022-07-18T08:11:24;101090.75;;;24.27;46.27
61537;BME280;48695;53.480;-6.300;2022-07-18T08:13:50;101089.44;;;24.32;46.48
61537;BME280;48695;53.480;-6.300;2022-07-18T08:16:15;101095.13;;;24.41;46.21
61537;BME280;48695;53.480;-6.300;2022-07-18T08:18:41;101092.09;;;24.45;46.33
61537;BME280;48695;53.480;-6.300;2022-07-18T08:21:06;101081.72;;;24.53;45.63
61537;BME280;48695;53.480;-6.300;2022-07-18T08:23:32;101076.00;;;24.58;46.19
61537;BME280;48695;53.480;-6.300;2022-07-18T08:25:57;101080.78;;;24.66;46.31
61537;BME280;48695;53.480;-6.300;2022-07-18T08:28:22;101075.72;;;24.74;46.60
61537;BME280;48695;53.480;-6.300;2022-07-18T08:30:49;101070.63;;;24.82;46.57
61537;BME280;48695;53.480;-6.300;2022-07-18T08:33:15;101068.22;;;24.90;46.44
61537;BME280;48695;53.480;-6.300;2022-07-18T08:35:41;101067.75;;;24.96;46.60
61537;BME280;48695;53.480;-6.300;2022-07-18T08:38:06;101065.34;;;25.04;46.57
61537;BME280;48695;53.480;-6.300;2022-07-18T08:40:32;101072.16;;;25.08;46.29
61537;BME280;48695;53.480;-6.300;2022-07-18T08:42:58;101078.47;;;25.19;46.86
61537;BME280;48695;53.480;-6.300;2022-07-18T08:45:25;101082.28;;;25.27;46.63
61537;BME280;48695;53.480;-6.300;2022-07-18T08:47:51;101079.00;;;25.35;46.40
61537;BME280;48695;53.480;-6.300;2022-07-18T08:50:17;101079.38;;;25.42;45.98
61537;BME280;48695;53.480;-6.300;2022-07-18T08:52:44;101081.41;;;25.49;46.21
61537;BME280;48695;53.480;-6.300;2022-07-18T08:55:10;101077.53;;;25.53;45.76
61537;BME280;48695;53.480;-6.300;2022-07-18T08:57:36;101077.53;;;25.65;45.77
61537;BME280;48695;53.480;-6.300;2022-07-18T09:00:07;101082.06;;;25.75;45.43
61537;BME280;48695;53.480;-6.300;2022-07-18T09:02:33;101077.28;;;25.79;45.33
61537;BME280;48695;53.480;-6.300;2022-07-18T09:05:00;101080.94;;;25.89;44.93
61537;BME280;48695;53.480;-6.300;2022-07-18T09:07:29;101075.06;;;25.95;44.66
61537;BME280;48695;53.480;-6.300;2022-07-18T09:09:58;101063.41;;;25.96;45.10
61537;BME280;48695;53.480;-6.300;2022-07-18T09:12:28;101077.47;;;26.09;43.99
61537;BME280;48695;53.480;-6.300;2022-07-18T09:14:54;101067.25;;;26.14;43.94
61537;BME280;48695;53.480;-6.300;2022-07-18T09:17:27;101063.44;;;26.28;44.23
61537;BME280;48695;53.480;-6.300;2022-07-18T09:20:09;101044.56;;;26.30;43.94
61537;BME280;48695;53.480;-6.300;2022-07-18T09:22:38;101057.03;;;26.40;43.91
61537;BME280;48695;53.480;-6.300;2022-07-18T09:25:12;101048.16;;;26.51;43.75
61537;BME280;48695;53.480;-6.300;2022-07-18T09:27:43;101029.47;;;26.61;43.55
61537;BME280;48695;53.480;-6.300;2022-07-18T09:30:30;101030.88;;;26.86;43.55
61537;BME280;48695;53.480;-6.300;2022-07-18T09:35:34;101019.59;;;27.34;42.13
61537;BME280;48695;53.480;-6.300;2022-07-18T09:38:08;101023.13;;;27.75;41.07
61537;BME280;48695;53.480;-6.300;2022-07-18T09:43:08;101023.19;;;28.42;41.70
61537;BME280;48695;53.480;-6.300;2022-07-18T09:45:45;101021.03;;;28.85;41.57
61537;BME280;48695;53.480;-6.300;2022-07-18T09:48:17;101012.34;;;29.10;38.78
61537;BME280;48695;53.480;-6.300;2022-07-18T09:50:49;101025.31;;;29.52;38.75
61537;BME280;48695;53.480;-6.300;2022-07-18T09:55:55;101030.50;;;30.44;38.08
61537;BME280;48695;53.480;-6.300;2022-07-18T09:58:23;101017.81;;;30.72;37.36
61537;BME280;48695;53.480;-6.300;2022-07-18T10:00:50;101014.81;;;31.10;37.11
61537;BME280;48695;53.480;-6.300;2022-07-18T10:03:17;101016.56;;;31.53;36.55
61537;BME280;48695;53.480;-6.300;2022-07-18T10:05:45;101014.31;;;31.91;35.88
61537;BME280;48695;53.480;-6.300;2022-07-18T10:08:13;101018.06;;;32.31;35.52
61537;BME280;48695;53.480;-6.300;2022-07-18T10:10:40;101015.88;;;32.67;33.07
61537;BME280;48695;53.480;-6.300;2022-07-18T10:13:07;101010.91;;;33.03;33.33
61537;BME280;48695;53.480;-6.300;2022-07-18T10:15:35;101025.25;;;33.67;36.08
61537;BME280;48695;53.480;-6.300;2022-07-18T10:18:03;101016.47;;;33.88;32.37
61537;BME280;48695;53.480;-6.300;2022-07-18T10:20:33;101025.38;;;34.28;33.12
61537;BME280;48695;53.480;-6.300;2022-07-18T10:23:06;101021.75;;;34.58;30.32
61537;BME280;48695;53.480;-6.300;2022-07-18T10:25:33;101001.34;;;34.77;30.88
61537;BME280;48695;53.480;-6.300;2022-07-18T10:28:10;101017.66;;;35.36;32.08
61537;BME280;48695;53.480;-6.300;2022-07-18T10:30:45;101003.41;;;35.64;31.86
61537;BME280;48695;53.480;-6.300;2022-07-18T10:33:39;101014.66;;;36.19;32.46
61537;BME280;48695;53.480;-6.300;2022-07-18T10:38:35;101000.50;;;36.79;28.02
61537;BME280;48695;53.480;-6.300;2022-07-18T10:41:03;100997.41;;;37.17;27.58
61537;BME280;48695;53.480;-6.300;2022-07-18T10:45:55;100994.97;;;37.83;27.72
61537;BME280;48695;53.480;-6.300;2022-07-18T10:51:47;100996.44;;;38.72;27.28
61537;BME280;48695;53.480;-6.300;2022-07-18T10:56:19;100990.47;;;39.28;25.59
61537;BME280;48695;53.480;-6.300;2022-07-18T10:58:45;100993.28;;;39.91;29.13
61537;BME280;48695;53.480;-6.300;2022-07-18T11:01:16;100981.19;;;40.06;26.17
61537;BME280;48695;53.480;-6.300;2022-07-18T11:03:41;100981.41;;;40.11;23.07
61537;BME280;48695;53.480;-6.300;2022-07-18T11:06:07;100979.50;;;40.36;22.27
61537;BME280;48695;53.480;-6.300;2022-07-18T11:08:33;100985.41;;;40.58;23.17
61537;BME280;48695;53.480;-6.300;2022-07-18T11:21:33;100990.25;;;41.96;24.98
61537;BME280;48695;53.480;-6.300;2022-07-18T11:26:25;100976.06;;;41.88;23.23
61537;BME280;48695;53.480;-6.300;2022-07-18T11:28:58;100992.00;;;42.44;26.07
61537;BME280;48695;53.480;-6.300;2022-07-18T11:31:25;100998.69;;;42.48;21.26
61537;BME280;48695;53.480;-6.300;2022-07-18T11:33:51;100983.19;;;42.66;20.66
61537;BME280;48695;53.480;-6.300;2022-07-18T11:36:18;100989.81;;;43.17;24.97
61537;BME280;48695;53.480;-6.300;2022-07-18T11:38:52;100996.13;;;43.17;22.15
61537;BME280;48695;53.480;-6.300;2022-07-18T11:41:19;100990.78;;;43.11;20.06
61537;BME280;48695;53.480;-6.300;2022-07-18T11:43:46;100975.47;;;43.15;21.54
61537;BME280;48695;53.480;-6.300;2022-07-18T11:46:13;100971.50;;;43.22;20.30
61537;BME280;48695;53.480;-6.300;2022-07-18T11:48:40;100954.84;;;43.29;19.56
61537;BME280;48695;53.480;-6.300;2022-07-18T11:53:35;100970.44;;;43.52;19.57
61537;BME280;48695;53.480;-6.300;2022-07-18T11:56:05;100978.81;;;43.74;20.27
61537;BME280;48695;53.480;-6.300;2022-07-18T11:58:40;100958.97;;;43.72;20.99
61537;BME280;48695;53.480;-6.300;2022-07-18T12:01:07;100965.78;;;43.69;19.04
61537;BME280;48695;53.480;-6.300;2022-07-18T12:03:38;100959.19;;;43.82;19.92
61537;BME280;48695;53.480;-6.300;2022-07-18T12:06:13;100965.34;;;43.89;20.67
61537;BME280;48695;53.480;-6.300;2022-07-18T12:08:46;100951.38;;;43.79;19.72
61537;BME280;48695;53.480;-6.300;2022-07-18T12:11:16;100948.53;;;43.86;20.09
61537;BME280;48695;53.480;-6.300;2022-07-18T12:16:39;100950.88;;;44.11;20.77
61537;BME280;48695;53.480;-6.300;2022-07-18T12:19:09;100950.88;;;44.11;19.56
61537;BME280;48695;53.480;-6.300;2022-07-18T12:21:46;100948.03;;;44.06;19.77
61537;BME280;48695;53.480;-6.300;2022-07-18T12:30:17;100948.19;;;43.54;20.70
61537;BME280;48695;53.480;-6.300;2022-07-18T12:32:55;100931.78;;;43.59;20.32
61537;BME280;48695;53.480;-6.300;2022-07-18T12:35:31;100933.38;;;43.55;18.24
61537;BME280;48695;53.480;-6.300;2022-07-18T12:40:25;100927.00;;;43.99;18.91
61537;BME280;48695;53.480;-6.300;2022-07-18T12:43:03;100928.56;;;44.29;19.02
61537;BME280;48695;53.480;-6.300;2022-07-18T12:45:29;100928.56;;;44.29;17.88
61537;BME280;48695;53.480;-6.300;2022-07-18T12:47:54;100920.84;;;44.26;17.52
61537;BME280;48695;53.480;-6.300;2022-07-18T12:50:19;100931.34;;;44.12;18.04
61537;BME280;48695;53.480;-6.300;2022-07-18T12:52:45;100918.50;;;44.01;17.76
61537;BME280;48695;53.480;-6.300;2022-07-18T12:55:10;100917.50;;;43.90;17.87
61537;BME280;48695;53.480;-6.300;2022-07-18T12:57:36;100915.72;;;43.84;17.88
61537;BME280;48695;53.480;-6.300;2022-07-18T13:00:02;100909.94;;;43.69;18.17
61537;BME280;48695;53.480;-6.300;2022-07-18T13:02:28;100911.94;;;43.57;17.77
61537;BME280;48695;53.480;-6.300;2022-07-18T13:04:53;100917.19;;;43.41;17.98
61537;BME280;48695;53.480;-6.300;2022-07-18T13:07:18;100905.44;;;43.34;17.96
61537;BME280;48695;53.480;-6.300;2022-07-18T13:09:44;100893.88;;;43.32;19.16
61537;BME280;48695;53.480;-6.300;2022-07-18T13:12:09;100892.06;;;43.38;18.62
61537;BME280;48695;53.480;-6.300;2022-07-18T13:14:35;100897.63;;;43.55;18.04
61537;BME280;48695;53.480;-6.300;2022-07-18T13:17:00;100890.59;;;43.64;18.25
61537;BME280;48695;53.480;-6.300;2022-07-18T13:19:26;100895.13;;;43.70;18.17
61537;BME280;48695;53.480;-6.300;2022-07-18T13:21:51;100899.38;;;43.77;18.25
61537;BME280;48695;53.480;-6.300;2022-07-18T13:24:16;100893.16;;;43.82;18.10